createdAt,value
2018-01-05T00:01:30.281Z,68.90
2018-01-05T00:03:57.898Z,68.50
2018-01-05T00:06:27.044Z,68.90
2018-01-05T00:08:54.670Z,68.20
2018-01-05T00:11:23.040Z,68.60
2018-01-05T00:13:50.660Z,67.70
2018-01-05T00:16:18.291Z,67.90
2018-01-05T00:18:45.909Z,67.70
2018-01-05T00:21:13.572Z,67.90
2018-01-05T00:23:41.196Z,67.40
2018-01-05T00:26:08.770Z,67.30
2018-01-05T00:28:36.381Z,66.80
2018-01-05T00:31:04.760Z,66.70
2018-01-05T00:33:33.124Z,66.70
2018-01-05T00:36:00.700Z,66.60
2018-01-05T00:38:29.070Z,66.30
2018-01-05T00:40:57.409Z,66.50
2018-01-05T00:43:25.021Z,66.50
2018-01-05T00:45:52.604Z,66.00
2018-01-05T00:48:20.204Z,66.10
2018-01-05T00:50:47.779Z,66.00
2018-01-05T00:53:16.146Z,66.90
2018-01-05T00:55:43.722Z,66.90
2018-01-05T00:58:12.082Z,66.60
2018-01-05T01:00:39.657Z,66.60
2018-01-05T01:03:07.263Z,65.40
2018-01-05T01:05:34.838Z,66.30
2018-01-05T01:08:02.438Z,65.10
2018-01-05T01:10:30.774Z,65.00
2018-01-05T01:12:58.374Z,64.70
2018-01-05T01:15:26.720Z,66.10
2018-01-05T01:17:54.313Z,66.00
2018-01-05T01:20:21.900Z,64.70
2018-01-05T01:22:50.256Z,65.60
2018-01-05T01:25:17.830Z,65.60
2018-01-05T01:27:45.425Z,65.70
2018-01-05T01:30:12.996Z,65.80
2018-01-05T01:32:40.597Z,65.30
2018-01-05T01:35:08.177Z,65.50
2018-01-05T01:37:35.776Z,66.60
2018-01-05T01:40:03.350Z,65.70
2018-01-05T01:42:31.696Z,65.50
2018-01-05T01:44:59.304Z,65.60
2018-01-05T01:47:26.882Z,65.70
2018-01-05T01:49:54.473Z,65.60
2018-01-05T01:52:22.044Z,66.20
2018-01-05T01:54:49.649Z,66.10
2018-01-05T01:57:17.228Z,65.30
2018-01-05T01:59:44.819Z,65.90
2018-01-05T02:02:12.397Z,66.20
2018-01-05T02:04:39.991Z,66.40
2018-01-05T02:07:07.557Z,65.60
2018-01-05T02:09:35.157Z,65.50
2018-01-05T02:12:02.724Z,66.00
2018-01-05T02:14:30.317Z,66.40
2018-01-05T02:16:58.654Z,65.90
2018-01-05T02:19:26.257Z,65.90
2018-01-05T02:21:53.829Z,65.40
2018-01-05T02:24:23.071Z,65.20
2018-01-05T02:26:50.646Z,65.40
2018-01-05T02:29:18.245Z,65.20
2018-01-05T02:31:45.814Z,64.70
2018-01-05T02:34:13.409Z,64.80
2018-01-05T02:36:40.982Z,64.80
2018-01-05T02:39:08.573Z,65.70
2018-01-05T02:41:36.151Z,65.00
2018-01-05T02:44:03.748Z,65.40
2018-01-05T02:46:31.327Z,65.50
2018-01-05T02:48:58.925Z,65.30
2018-01-05T02:51:26.495Z,66.00
2018-01-05T02:53:54.099Z,65.70
2018-01-05T02:56:21.666Z,65.20
2018-01-05T02:58:50.015Z,65.40
2018-01-05T03:01:17.623Z,65.40
2018-01-05T03:03:45.215Z,64.90
2018-01-05T03:06:12.811Z,64.80
2018-01-05T03:08:40.382Z,64.70
2018-01-05T03:11:07.969Z,64.00
2018-01-05T03:13:35.545Z,63.90
2018-01-05T03:16:03.134Z,63.80
2018-01-05T03:18:30.705Z,63.90
2018-01-05T03:20:58.332Z,64.30
2018-01-05T03:23:25.910Z,63.30
2018-01-05T03:25:53.505Z,63.50
2018-01-05T03:28:21.841Z,64.40
2018-01-05T03:30:49.438Z,64.40
2018-01-05T03:33:17.778Z,63.90
2018-01-05T03:35:45.370Z,63.90
2018-01-05T03:38:12.941Z,63.70
2018-01-05T03:40:41.298Z,64.30
2018-01-05T03:43:08.876Z,64.30
2018-01-05T03:45:37.234Z,64.30
2018-01-05T03:48:05.586Z,64.00
2018-01-05T03:50:33.178Z,64.00
2018-01-05T03:53:00.759Z,63.90
2018-01-05T03:55:28.348Z,63.80
2018-01-05T03:57:55.917Z,63.80
2018-01-05T04:00:23.573Z,63.90
2018-01-05T04:02:51.125Z,64.20
2018-01-05T04:05:18.715Z,63.80
2018-01-05T04:07:46.286Z,64.20
2018-01-05T04:10:13.884Z,63.60
2018-01-05T04:12:41.458Z,64.00
2018-01-05T04:15:09.038Z,61.50
2018-01-05T04:17:36.638Z,62.30
2018-01-05T04:20:05.021Z,60.60
2018-01-05T04:22:33.378Z,62.10
2018-01-05T04:25:00.964Z,62.10
2018-01-05T04:27:28.554Z,62.50
2018-01-05T04:29:56.890Z,61.60
2018-01-05T04:32:24.488Z,61.60
2018-01-05T04:34:52.053Z,62.00
2018-01-05T04:37:19.646Z,62.10
2018-01-05T04:39:47.213Z,61.90
2018-01-05T04:42:14.835Z,61.80
2018-01-05T04:44:42.405Z,61.40
2018-01-05T04:47:10.004Z,61.60
2018-01-05T04:49:38.340Z,62.50
2018-01-05T04:52:05.933Z,62.50
2018-01-05T04:54:34.274Z,62.40
2018-01-05T04:57:01.866Z,62.40
2018-01-05T04:59:29.438Z,63.10
2018-01-05T05:01:57.808Z,63.50
2018-01-05T05:04:25.405Z,63.40
2018-01-05T05:06:53.599Z,63.70
2018-01-05T05:09:21.738Z,63.40
2018-01-05T05:11:50.092Z,63.50
2018-01-05T05:14:18.206Z,63.90
2018-01-05T05:16:47.150Z,62.40
2018-01-05T05:19:15.221Z,63.30
2018-01-05T05:21:43.745Z,62.50
2018-01-05T05:24:11.848Z,62.30
2018-01-05T05:26:40.237Z,62.10
2018-01-05T05:29:08.382Z,62.40
2018-01-05T05:31:36.406Z,62.30
2018-01-05T05:34:04.636Z,62.70
2018-01-05T05:36:35.667Z,63.80
2018-01-05T05:39:04.896Z,63.30
2018-01-05T05:41:32.999Z,63.00
2018-01-05T05:44:03.584Z,63.60
2018-01-05T05:46:31.690Z,63.30
2018-01-05T05:49:00.289Z,62.60
2018-01-05T05:51:28.947Z,62.80
2018-01-05T05:53:57.053Z,62.70
2018-01-05T05:56:25.747Z,62.80
2018-01-05T05:58:53.880Z,62.80
2018-01-05T06:01:22.224Z,62.90
2018-01-05T06:03:50.472Z,63.00
2018-01-05T06:06:19.095Z,62.20
2018-01-05T06:08:48.074Z,62.30
2018-01-05T06:11:18.063Z,62.20
2018-01-05T06:13:46.152Z,62.20
2018-01-05T06:16:15.836Z,63.10
2018-01-05T06:18:43.902Z,63.10
2018-01-05T06:21:11.905Z,63.20
2018-01-05T06:23:40.502Z,62.80
2018-01-05T06:26:08.594Z,62.80
2018-01-05T06:28:36.819Z,62.90
2018-01-05T06:31:05.700Z,63.30
2018-01-05T06:33:33.531Z,63.40
2018-01-05T06:36:01.480Z,62.80
2018-01-05T06:38:29.916Z,62.20
2018-01-05T06:40:58.531Z,62.60
2018-01-05T06:43:26.618Z,62.90
2018-01-05T06:45:54.896Z,63.50
2018-01-05T06:48:23.771Z,62.70
2018-01-05T06:50:52.712Z,62.70
2018-01-05T06:53:21.408Z,62.40
2018-01-05T06:55:49.578Z,63.50
2018-01-05T06:58:19.024Z,63.10
2018-01-05T07:00:47.239Z,63.10
2018-01-05T07:03:16.047Z,63.10
2018-01-05T07:05:44.232Z,63.20
2018-01-05T07:08:12.270Z,62.30
2018-01-05T07:10:40.291Z,63.00
2018-01-05T07:13:08.736Z,62.30
2018-01-05T07:15:36.817Z,62.80
2018-01-05T07:18:05.542Z,63.20
2018-01-05T07:20:33.929Z,63.00
2018-01-05T07:23:02.390Z,62.60
2018-01-05T07:25:31.376Z,61.70
2018-01-05T07:28:00.780Z,60.40
2018-01-05T07:30:29.090Z,60.30
2018-01-05T07:32:57.154Z,60.00
2018-01-05T07:35:25.801Z,59.80
2018-01-05T07:37:54.590Z,59.70
2018-01-05T07:40:27.254Z,60.50
2018-01-05T07:42:55.826Z,59.50
2018-01-05T07:45:23.967Z,59.60
2018-01-05T07:47:52.193Z,59.60
2018-01-05T07:50:20.324Z,59.60
2018-01-05T07:52:48.680Z,60.20
2018-01-05T07:55:18.435Z,60.30
2018-01-05T07:57:46.490Z,60.20
2018-01-05T08:00:15.064Z,59.90
2018-01-05T08:02:43.871Z,59.80
2018-01-05T08:05:11.522Z,59.40
2018-01-05T08:07:39.091Z,59.40
2018-01-05T08:10:06.695Z,60.20
2018-01-05T08:12:34.271Z,60.60
2018-01-05T08:15:02.657Z,60.60
2018-01-05T08:17:30.233Z,60.60
2018-01-05T08:19:57.834Z,61.00
2018-01-05T08:22:25.406Z,60.80
2018-01-05T08:24:53.023Z,61.30
2018-01-05T08:27:20.627Z,61.20
2018-01-05T08:29:48.206Z,60.60
2018-01-05T08:32:16.563Z,59.40
2018-01-05T08:34:44.134Z,59.40
2018-01-05T08:37:12.499Z,59.70
2018-01-05T08:39:40.069Z,59.70
2018-01-05T08:42:07.663Z,60.00
2018-01-05T08:44:35.235Z,60.60
2018-01-05T08:47:02.833Z,60.10
2018-01-05T08:49:30.401Z,60.20
2018-01-05T08:51:58.000Z,59.20
2018-01-05T08:54:25.575Z,59.10
2018-01-05T08:56:53.170Z,59.60
2018-01-05T08:59:20.742Z,59.20
2018-01-05T09:01:48.343Z,59.30
2018-01-05T09:04:16.060Z,59.10
2018-01-05T09:06:43.658Z,59.50
2018-01-05T09:09:11.233Z,59.10
2018-01-05T09:11:38.839Z,57.70
2018-01-05T09:14:06.413Z,58.50
2018-01-05T09:16:34.011Z,58.70
2018-01-05T09:19:01.590Z,58.40
2018-01-05T09:21:29.194Z,59.10
2018-01-05T09:23:57.536Z,58.90
2018-01-05T09:26:25.125Z,58.90
2018-01-05T09:28:53.517Z,58.60
2018-01-05T09:31:21.879Z,58.60
2018-01-05T09:33:50.205Z,58.30
2018-01-05T09:36:18.565Z,58.60
2018-01-05T09:38:46.135Z,58.60
2018-01-05T09:41:13.774Z,59.30
2018-01-05T09:43:41.353Z,59.00
2018-01-05T09:46:08.954Z,59.30
2018-01-05T09:48:36.558Z,59.20
2018-01-05T09:51:04.138Z,59.30
2018-01-05T09:53:31.731Z,59.30
2018-01-05T09:55:59.376Z,59.30
2018-01-05T09:58:26.977Z,60.10
2018-01-05T10:00:55.317Z,60.00
2018-01-05T10:03:22.921Z,59.90
2018-01-05T10:05:51.258Z,59.60
2018-01-05T10:08:18.864Z,59.60
2018-01-05T10:10:46.433Z,59.30
2018-01-05T10:13:14.024Z,57.80
2018-01-05T10:15:41.605Z,59.50
2018-01-05T10:18:09.209Z,58.90
2018-01-05T10:20:36.782Z,59.90
2018-01-05T10:23:05.157Z,57.80
2018-01-05T10:25:33.495Z,58.90
2018-01-05T10:28:01.126Z,58.90
2018-01-05T10:30:28.700Z,60.00
2018-01-05T10:32:56.290Z,59.50
2018-01-05T10:35:23.863Z,58.90
2018-01-05T10:37:51.458Z,59.80
2018-01-05T10:40:19.041Z,58.80
2018-01-05T10:42:47.430Z,59.30
2018-01-05T10:45:15.003Z,59.30
2018-01-05T10:47:42.612Z,59.60
2018-01-05T10:50:10.218Z,59.00
2018-01-05T10:52:37.834Z,59.90
2018-01-05T10:55:05.403Z,60.00
2018-01-05T10:57:35.041Z,59.10
2018-01-05T11:00:02.670Z,58.60
2018-01-05T11:02:30.242Z,58.50
2018-01-05T11:04:58.452Z,58.70
2018-01-05T11:07:26.028Z,58.90
2018-01-05T11:09:53.626Z,59.20
2018-01-05T11:12:21.218Z,59.60
2018-01-05T11:14:48.834Z,59.20
2018-01-05T11:17:16.413Z,59.10
2018-01-05T11:19:44.016Z,58.70
2018-01-05T11:22:15.100Z,59.60
2018-01-05T11:24:43.675Z,59.90
2018-01-05T11:27:11.338Z,59.70
2018-01-05T11:29:38.939Z,59.30
2018-01-05T11:32:07.283Z,60.50
2018-01-05T11:34:34.912Z,60.50
2018-01-05T11:37:03.249Z,61.40
2018-01-05T11:39:31.615Z,62.40
2018-01-05T11:41:59.185Z,62.40
2018-01-05T11:44:27.551Z,64.00
2018-01-05T11:46:55.125Z,64.00
2018-01-05T11:49:22.722Z,64.60
2018-01-05T11:51:50.306Z,64.50
2018-01-05T11:54:17.898Z,64.40
2018-01-05T11:56:46.238Z,65.10
2018-01-05T11:59:13.834Z,65.10
2018-01-05T12:01:42.167Z,65.70
2018-01-05T12:04:09.766Z,65.60
2018-01-05T12:06:38.106Z,66.10
2018-01-05T12:09:05.701Z,66.00
2018-01-05T12:11:34.046Z,66.20
2018-01-05T12:14:02.542Z,66.10
2018-01-05T12:16:30.289Z,66.40
2018-01-05T12:18:59.519Z,66.90
2018-01-05T12:21:27.138Z,66.80
2018-01-05T12:23:54.716Z,67.00
2018-01-05T12:26:22.315Z,67.20
2018-01-05T12:28:50.649Z,68.30
2018-01-05T12:31:18.246Z,68.30
2018-01-05T12:33:45.819Z,68.40
2018-01-05T12:36:13.411Z,68.10
2018-01-05T12:38:41.004Z,68.50
2018-01-05T12:41:08.608Z,68.70
2018-01-05T12:43:36.186Z,69.40
2018-01-05T12:46:03.781Z,69.10
2018-01-05T12:48:31.358Z,69.10
2018-01-05T12:50:59.060Z,69.30
2018-01-05T12:53:26.631Z,69.40
2018-01-05T12:55:54.994Z,69.50
2018-01-05T12:58:22.567Z,69.50
2018-01-05T13:00:50.194Z,69.70
2018-01-05T13:03:17.770Z,69.70
2018-01-05T13:05:45.393Z,70.10
2018-01-05T13:08:13.735Z,69.80
2018-01-05T13:10:41.346Z,69.80
2018-01-05T13:13:08.919Z,69.10
2018-01-05T13:15:36.535Z,69.30
2018-01-05T13:18:04.105Z,68.70
2018-01-05T13:20:32.464Z,69.60
2018-01-05T13:23:00.045Z,69.40
2018-01-05T13:25:27.646Z,70.10
2018-01-05T13:27:55.231Z,70.20
2018-01-05T13:30:22.811Z,70.00
2018-01-05T13:32:50.410Z,70.20
2018-01-05T13:35:17.990Z,69.90
2018-01-05T13:37:45.883Z,69.60
2018-01-05T13:40:14.329Z,70.30
2018-01-05T13:42:42.663Z,70.60
2018-01-05T13:45:11.104Z,70.50
2018-01-05T13:47:38.718Z,70.40
2018-01-05T13:50:07.057Z,71.20
2018-01-05T13:52:34.649Z,71.10
2018-01-05T13:55:02.990Z,70.40
2018-01-05T13:57:30.578Z,70.40
2018-01-05T13:59:58.978Z,70.50
2018-01-05T14:02:26.555Z,70.50
2018-01-05T14:04:54.905Z,70.80
2018-01-05T14:07:23.271Z,70.30
2018-01-05T14:09:51.605Z,70.20
2018-01-05T14:12:19.215Z,70.20
2018-01-05T14:14:48.225Z,70.90
2018-01-05T14:17:15.820Z,70.90
2018-01-05T14:19:43.398Z,71.10
2018-01-05T14:22:11.016Z,70.90
2018-01-05T14:24:38.637Z,71.60
2018-01-05T14:27:06.229Z,71.00
2018-01-05T14:29:33.797Z,70.70
2018-01-05T14:32:02.291Z,72.30
2018-01-05T14:34:29.879Z,72.20
2018-01-05T14:36:57.513Z,72.60
2018-01-05T14:39:25.095Z,71.80
2018-01-05T14:41:52.701Z,71.00
2018-01-05T14:50:23.718Z,72.00
2018-01-05T14:52:51.310Z,71.70
2018-01-05T14:55:18.878Z,71.00
2018-01-05T14:57:47.245Z,71.30
2018-01-05T15:00:15.579Z,71.70
2018-01-05T15:02:43.178Z,71.70
2018-01-05T15:05:11.510Z,71.50
2018-01-05T15:07:39.107Z,71.40
2018-01-05T15:10:06.706Z,71.60
2018-01-05T15:12:34.306Z,72.00
2018-01-05T15:15:01.891Z,71.70
2018-01-05T15:17:30.241Z,71.20
2018-01-05T15:19:57.810Z,71.10
2018-01-05T15:22:25.403Z,71.40
2018-01-05T15:24:52.983Z,71.20
2018-01-05T15:27:20.548Z,71.10
2018-01-05T15:29:48.142Z,71.30
2018-01-05T15:32:16.589Z,71.70
2018-01-05T15:34:44.329Z,71.60
2018-01-05T15:37:11.962Z,71.80
2018-01-05T15:39:39.615Z,71.50
2018-01-05T15:42:07.433Z,71.70
2018-01-05T15:44:35.118Z,72.00
2018-01-05T15:47:03.479Z,72.90
2018-01-05T15:49:32.390Z,72.30
2018-01-05T15:52:00.590Z,72.30
2018-01-05T15:54:30.851Z,72.00
2018-01-05T15:56:59.922Z,71.60
2018-01-05T15:59:28.118Z,71.60
2018-01-05T16:01:56.730Z,71.80
2018-01-05T16:04:24.926Z,72.50
2018-01-05T16:06:53.751Z,72.00
2018-01-05T16:09:21.978Z,71.90
2018-01-05T16:11:50.287Z,72.30
2018-01-05T16:14:18.286Z,72.10
2018-01-05T16:16:47.108Z,72.70
2018-01-05T16:19:15.464Z,72.60
2018-01-05T16:21:43.435Z,72.20
2018-01-05T16:24:11.890Z,72.90
2018-01-05T16:26:41.712Z,71.80
2018-01-05T16:29:09.857Z,71.30
2018-01-05T16:31:37.813Z,72.20
2018-01-05T16:34:05.780Z,71.40
2018-01-05T16:36:34.252Z,71.80
2018-01-05T16:39:02.454Z,71.80
2018-01-05T16:41:30.329Z,72.50
2018-01-05T16:43:59.019Z,72.00
2018-01-05T16:46:27.270Z,71.90
2018-01-05T16:48:55.779Z,72.40
2018-01-05T16:51:24.372Z,71.70
2018-01-05T16:53:52.723Z,71.20
2018-01-05T16:56:21.845Z,72.20
2018-01-05T16:58:50.004Z,71.70
2018-01-05T17:01:18.193Z,71.50
2018-01-05T17:03:46.307Z,71.40
2018-01-05T17:06:14.292Z,71.40
2018-01-05T17:08:42.248Z,72.10
2018-01-05T17:11:10.268Z,72.10
2018-01-05T17:13:38.364Z,72.10
2018-01-05T17:16:07.310Z,72.60
2018-01-05T17:18:35.228Z,72.60
2018-01-05T17:21:03.300Z,71.80
2018-01-05T17:23:32.066Z,71.80
2018-01-05T17:26:00.294Z,71.80
2018-01-05T17:28:28.783Z,72.50
2018-01-05T17:30:56.971Z,72.50
2018-01-05T17:33:25.100Z,72.50
2018-01-05T17:35:53.506Z,72.00
2018-01-05T17:38:22.237Z,71.80
2018-01-05T17:40:50.495Z,71.30
2018-01-05T17:43:18.711Z,71.10
2018-01-05T17:45:46.981Z,71.40
2018-01-05T17:48:15.008Z,71.00
2018-01-05T17:50:43.225Z,71.40
2018-01-05T17:53:11.213Z,70.90
2018-01-05T17:55:39.515Z,70.70
2018-01-05T17:58:07.827Z,70.80
2018-01-05T18:00:35.813Z,71.80
2018-01-05T18:03:04.585Z,71.80
2018-01-05T18:05:32.507Z,72.20
2018-01-05T18:08:00.535Z,71.10
2018-01-05T18:10:28.706Z,71.10
2018-01-05T18:12:58.099Z,71.70
2018-01-05T18:15:26.878Z,72.40
2018-01-05T18:17:54.948Z,72.50
2018-01-05T18:20:23.338Z,73.30
2018-01-05T18:22:51.030Z,72.20
2018-01-05T18:25:19.368Z,73.20
2018-01-05T18:27:47.002Z,73.20
2018-01-05T18:30:14.617Z,72.20
2018-01-05T18:32:42.252Z,72.10
2018-01-05T18:35:09.818Z,71.70
2018-01-05T18:37:37.453Z,72.10
2018-01-05T18:40:05.115Z,71.80
2018-01-05T18:42:32.779Z,71.50
2018-01-05T18:45:00.388Z,71.50
2018-01-05T18:47:28.029Z,71.30
2018-01-05T18:49:55.650Z,71.90
2018-01-05T18:52:23.233Z,72.50
2018-01-05T18:54:50.855Z,72.00
2018-01-05T18:57:18.505Z,72.10
2018-01-05T18:59:46.129Z,72.50
2018-01-05T19:02:13.748Z,72.00
2018-01-05T19:04:41.365Z,72.10
2018-01-05T19:07:09.008Z,72.40
2018-01-05T19:09:37.419Z,72.70
2018-01-05T19:12:05.045Z,72.70
2018-01-05T19:14:32.665Z,73.80
2018-01-05T19:17:00.288Z,71.90
2018-01-05T19:19:28.604Z,72.70
2018-01-05T19:21:56.217Z,73.00
2018-01-05T19:24:23.852Z,73.10
2018-01-05T19:26:51.485Z,72.30
2018-01-05T19:29:19.964Z,71.90
2018-01-05T19:31:47.587Z,71.40
2018-01-05T19:34:15.234Z,71.70
2018-01-05T19:36:42.860Z,72.80
2018-01-05T19:39:10.609Z,71.90
2018-01-05T19:41:38.237Z,72.60
2018-01-05T19:44:08.138Z,72.40
2018-01-05T19:46:35.801Z,72.40
2018-01-05T19:49:03.432Z,72.70
2018-01-05T19:51:31.053Z,73.10
2018-01-05T19:53:59.200Z,73.00
2018-01-05T19:56:26.813Z,73.50
2018-01-05T19:58:54.593Z,72.50
2018-01-05T20:01:22.677Z,72.90
2018-01-05T20:03:50.310Z,72.90
2018-01-05T20:06:17.933Z,72.10
2018-01-05T20:08:45.565Z,72.80
2018-01-05T20:11:13.190Z,73.20
2018-01-05T20:13:40.837Z,72.90
2018-01-05T20:16:08.507Z,72.70
2018-01-05T20:18:36.151Z,72.80
2018-01-05T20:21:03.768Z,73.50
2018-01-05T20:23:32.312Z,73.40
2018-01-05T20:26:00.750Z,73.00
2018-01-05T20:28:29.189Z,73.00
2018-01-05T20:30:57.913Z,72.60
2018-01-05T20:33:26.373Z,73.40
2018-01-05T20:35:54.077Z,73.40
2018-01-05T20:38:21.689Z,73.40
2018-01-05T20:40:49.330Z,73.10
2018-01-05T20:43:16.953Z,73.30
2018-01-05T20:45:44.897Z,73.30
2018-01-05T20:48:13.372Z,73.50
2018-01-05T20:50:41.133Z,73.40
2018-01-05T20:53:09.844Z,73.60
2018-01-05T20:55:37.598Z,73.20
2018-01-05T20:58:05.289Z,73.70
2018-01-05T21:00:33.225Z,73.10
2018-01-05T21:03:01.611Z,72.70
2018-01-05T21:05:30.025Z,73.20
2018-01-05T21:07:57.659Z,73.20
2018-01-05T21:10:25.375Z,72.70
2018-01-05T21:12:53.040Z,72.80
2018-01-05T21:15:21.466Z,72.20
2018-01-05T21:17:49.163Z,72.20
2018-01-05T21:20:17.035Z,72.00
2018-01-05T21:22:44.765Z,72.10
2018-01-05T21:25:12.480Z,72.30
2018-01-05T21:27:40.131Z,72.20
2018-01-05T21:30:07.825Z,72.10
2018-01-05T21:32:36.254Z,71.90
2018-01-05T21:35:04.093Z,72.80
2018-01-05T21:37:31.846Z,73.20
2018-01-05T21:40:00.668Z,73.10
2018-01-05T21:42:28.296Z,72.90
2018-01-05T21:44:55.942Z,73.30
2018-01-05T21:47:24.324Z,73.10
2018-01-05T21:49:51.960Z,73.10
2018-01-05T21:52:19.578Z,72.80
2018-01-05T21:54:47.287Z,72.30
2018-01-05T21:57:14.879Z,73.00
2018-01-05T21:59:42.520Z,72.80
2018-01-05T22:02:10.148Z,73.00
2018-01-05T22:04:37.785Z,72.70
2018-01-05T22:07:05.425Z,72.70
2018-01-05T22:09:32.991Z,72.50
2018-01-05T22:12:00.724Z,72.20
2018-01-05T22:14:29.104Z,71.80
2018-01-05T22:16:56.694Z,71.80
2018-01-05T22:19:24.657Z,72.10
2018-01-05T22:21:52.301Z,72.20
2018-01-05T22:24:19.916Z,72.00
2018-01-05T22:26:47.576Z,71.50
2018-01-05T22:29:15.226Z,71.40
2018-01-05T22:31:42.860Z,72.00
2018-01-05T22:34:10.472Z,72.20
2018-01-05T22:36:38.099Z,72.10
2018-01-05T22:39:05.721Z,71.80
2018-01-05T22:41:33.316Z,71.70
2018-01-05T22:44:00.927Z,71.70
2018-01-05T22:46:29.327Z,72.00
2018-01-05T22:48:56.936Z,71.90
2018-01-05T22:51:24.573Z,71.90
2018-01-05T22:53:52.189Z,72.00
2018-01-05T22:56:20.592Z,72.30
2018-01-05T22:58:48.194Z,72.30
2018-01-05T23:01:15.835Z,72.70
2018-01-05T23:03:43.451Z,72.50
2018-01-05T23:06:11.069Z,72.40
2018-01-05T23:08:38.708Z,73.00
2018-01-05T23:11:06.275Z,72.90
2018-01-05T23:13:33.899Z,72.80
2018-01-05T23:16:01.509Z,72.30
2018-01-05T23:18:29.146Z,72.90
2018-01-05T23:20:56.756Z,72.00
2018-01-05T23:23:25.165Z,72.60
2018-01-05T23:25:52.732Z,72.50
2018-01-05T23:28:20.360Z,72.00
2018-01-05T23:30:48.744Z,72.20
2018-01-05T23:33:17.156Z,72.20
2018-01-05T23:35:44.765Z,72.10
2018-01-05T23:38:12.433Z,72.20
2018-01-05T23:40:40.028Z,72.00
2018-01-05T23:43:07.664Z,71.30
2018-01-05T23:45:35.847Z,72.00
2018-01-05T23:48:03.486Z,72.10
2018-01-05T23:50:31.116Z,71.70
2018-01-05T23:52:58.743Z,71.50
2018-01-05T23:55:26.344Z,72.00
2018-01-05T23:57:53.981Z,71.10
